Stratford, North Carolina
Current Conditions -  °F | °C
As of 10:15 PM on Monday 20 Oct 2014 (Local Time) from KGEV Reporting Station
Broken Clouds Broken Clouds  
Wind Chill: 54°   Ceiling: 8000
Heat Index: 54°   Visibility: 10mi
Dew Point: 44°   Wind: 6mph
Humidity: 70%   Direction: 260°W
Pressure: 30.02"   Gusts: NA
Location:  36.5212°N, 81.1574°W
Report Text: KGEV 210215Z AUTO 26005KT 10SM BKN080 12/07 A3002 RMK AO2 T01200066
Loading
Personal Weather Stations






























Interactive Weather Map
Tropical Storm Tracking
New forecast layout! Learn more

10-Day Weather Forecast

Advertisements
Track Severe Weather on mobile